sensor_id;sensor_type;location;lat;lon;timestamp;P1;durP1;ratioP1;P2;durP2;ratioP2
52718;SDS011;38616;42.140;24.760;2023-05-07T00:01:32;8.50;;;4.07;;
52718;SDS011;38616;42.140;24.760;2023-05-07T00:03:57;9.32;;;3.35;;
52718;SDS011;38616;42.140;24.760;2023-05-07T00:06:22;7.97;;;3.50;;
52718;SDS011;38616;42.140;24.760;2023-05-07T00:08:48;7.57;;;3.50;;
52718;SDS011;38616;42.140;24.760;2023-05-07T00:11:13;8.40;;;3.67;;
52718;SDS011;38616;42.140;24.760;2023-05-07T00:13:39;8.75;;;3.95;;
52718;SDS011;38616;42.140;24.760;2023-05-07T00:16:04;8.90;;;3.47;;
52718;SDS011;38616;42.140;24.760;2023-05-07T00:18:30;6.78;;;3.10;;
52718;SDS011;38616;42.140;24.760;2023-05-07T00:20:56;8.93;;;4.68;;
52718;SDS011;38616;42.140;24.760;2023-05-07T00:23:21;5.35;;;3.15;;
52718;SDS011;38616;42.140;24.760;2023-05-07T00:25:47;8.10;;;3.55;;
52718;SDS011;38616;42.140;24.760;2023-05-07T00:28:12;9.60;;;5.05;;
52718;SDS011;38616;42.140;24.760;2023-05-07T00:30:38;7.60;;;3.58;;
52718;SDS011;38616;42.140;24.760;2023-05-07T00:33:03;8.63;;;3.30;;
52718;SDS011;38616;42.140;24.760;2023-05-07T00:35:29;6.57;;;3.65;;
52718;SDS011;38616;42.140;24.760;2023-05-07T00:37:55;10.77;;;3.65;;
52718;SDS011;38616;42.140;24.760;2023-05-07T00:40:21;8.70;;;3.45;;
52718;SDS011;38616;42.140;24.760;2023-05-07T00:42:46;9.32;;;2.95;;
52718;SDS011;38616;42.140;24.760;2023-05-07T00:45:15;7.13;;;3.40;;
52718;SDS011;38616;42.140;24.760;2023-05-07T00:47:41;8.98;;;3.17;;
52718;SDS011;38616;42.140;24.760;2023-05-07T00:50:07;10.15;;;3.40;;
52718;SDS011;38616;42.140;24.760;2023-05-07T00:55:02;7.63;;;3.17;;
52718;SDS011;38616;42.140;24.760;2023-05-07T00:57:32;9.40;;;3.30;;
52718;SDS011;38616;42.140;24.760;2023-05-07T01:00:03;6.05;;;3.60;;
52718;SDS011;38616;42.140;24.760;2023-05-07T01:02:29;6.40;;;3.22;;
52718;SDS011;38616;42.140;24.760;2023-05-07T01:04:55;6.78;;;3.10;;
52718;SDS011;38616;42.140;24.760;2023-05-07T01:07:22;7.35;;;3.85;;
52718;SDS011;38616;42.140;24.760;2023-05-07T01:09:48;7.18;;;3.35;;
52718;SDS011;38616;42.140;24.760;2023-05-07T01:12:16;6.28;;;3.22;;
52718;SDS011;38616;42.140;24.760;2023-05-07T01:14:42;6.63;;;4.03;;
52718;SDS011;38616;42.140;24.760;2023-05-07T01:17:07;6.80;;;3.05;;
52718;SDS011;38616;42.140;24.760;2023-05-07T01:19:33;10.68;;;3.20;;
52718;SDS011;38616;42.140;24.760;2023-05-07T01:22:07;6.35;;;3.47;;
52718;SDS011;38616;42.140;24.760;2023-05-07T01:24:35;4.75;;;2.95;;
52718;SDS011;38616;42.140;24.760;2023-05-07T01:27:01;5.90;;;3.08;;
52718;SDS011;38616;42.140;24.760;2023-05-07T01:29:27;6.90;;;3.40;;
52718;SDS011;38616;42.140;24.760;2023-05-07T01:31:53;9.38;;;3.78;;
52718;SDS011;38616;42.140;24.760;2023-05-07T01:34:22;9.95;;;4.18;;
52718;SDS011;38616;42.140;24.760;2023-05-07T01:36:48;11.57;;;4.22;;
52718;SDS011;38616;42.140;24.760;2023-05-07T01:39:14;7.45;;;4.20;;
52718;SDS011;38616;42.140;24.760;2023-05-07T01:41:41;7.72;;;4.00;;
52718;SDS011;38616;42.140;24.760;2023-05-07T01:44:08;5.10;;;3.53;;
52718;SDS011;38616;42.140;24.760;2023-05-07T01:46:37;8.60;;;3.75;;
52718;SDS011;38616;42.140;24.760;2023-05-07T01:49:02;9.70;;;4.13;;
52718;SDS011;38616;42.140;24.760;2023-05-07T01:51:28;10.63;;;3.90;;
52718;SDS011;38616;42.140;24.760;2023-05-07T01:53:54;8.25;;;3.90;;
52718;SDS011;38616;42.140;24.760;2023-05-07T01:56:20;9.48;;;4.80;;
52718;SDS011;38616;42.140;24.760;2023-05-07T01:58:46;7.28;;;4.32;;
52718;SDS011;38616;42.140;24.760;2023-05-07T02:01:14;11.07;;;5.43;;
52718;SDS011;38616;42.140;24.760;2023-05-07T02:03:39;10.80;;;5.55;;
52718;SDS011;38616;42.140;24.760;2023-05-07T02:06:05;14.55;;;5.38;;
52718;SDS011;38616;42.140;24.760;2023-05-07T02:08:30;10.98;;;4.95;;
52718;SDS011;38616;42.140;24.760;2023-05-07T02:10:56;8.52;;;4.88;;
52718;SDS011;38616;42.140;24.760;2023-05-07T02:13:21;10.60;;;4.95;;
52718;SDS011;38616;42.140;24.760;2023-05-07T02:15:47;9.95;;;4.45;;
52718;SDS011;38616;42.140;24.760;2023-05-07T02:18:15;9.15;;;4.57;;
52718;SDS011;38616;42.140;24.760;2023-05-07T02:20:41;7.35;;;3.95;;
52718;SDS011;38616;42.140;24.760;2023-05-07T02:23:07;11.57;;;4.32;;
52718;SDS011;38616;42.140;24.760;2023-05-07T02:25:32;11.18;;;3.90;;
52718;SDS011;38616;42.140;24.760;2023-05-07T02:27:58;7.10;;;4.10;;
52718;SDS011;38616;42.140;24.760;2023-05-07T02:30:24;8.80;;;3.83;;
52718;SDS011;38616;42.140;24.760;2023-05-07T02:32:50;11.15;;;4.65;;
52718;SDS011;38616;42.140;24.760;2023-05-07T02:35:15;8.68;;;3.97;;
52718;SDS011;38616;42.140;24.760;2023-05-07T02:37:41;8.70;;;4.10;;
52718;SDS011;38616;42.140;24.760;2023-05-07T02:40:09;8.68;;;4.10;;
52718;SDS011;38616;42.140;24.760;2023-05-07T02:42:34;6.43;;;3.95;;
52718;SDS011;38616;42.140;24.760;2023-05-07T02:45:00;8.73;;;4.00;;
52718;SDS011;38616;42.140;24.760;2023-05-07T02:47:25;8.38;;;4.22;;
52718;SDS011;38616;42.140;24.760;2023-05-07T02:49:54;5.57;;;3.40;;
52718;SDS011;38616;42.140;24.760;2023-05-07T02:52:20;9.95;;;4.00;;
52718;SDS011;38616;42.140;24.760;2023-05-07T02:54:45;9.85;;;5.00;;
52718;SDS011;38616;42.140;24.760;2023-05-07T02:57:11;11.18;;;4.75;;
52718;SDS011;38616;42.140;24.760;2023-05-07T02:59:36;8.68;;;4.32;;
52718;SDS011;38616;42.140;24.760;2023-05-07T03:02:04;6.65;;;3.58;;
52718;SDS011;38616;42.140;24.760;2023-05-07T03:04:30;9.30;;;4.40;;
52718;SDS011;38616;42.140;24.760;2023-05-07T03:06:58;8.98;;;4.53;;
52718;SDS011;38616;42.140;24.760;2023-05-07T03:09:23;10.35;;;4.80;;
52718;SDS011;38616;42.140;24.760;2023-05-07T03:11:49;5.68;;;3.85;;
52718;SDS011;38616;42.140;24.760;2023-05-07T03:14:14;11.43;;;4.30;;
52718;SDS011;38616;42.140;24.760;2023-05-07T03:16:40;7.28;;;4.47;;
52718;SDS011;38616;42.140;24.760;2023-05-07T03:19:05;7.25;;;4.70;;
52718;SDS011;38616;42.140;24.760;2023-05-07T03:21:31;9.95;;;5.05;;
52718;SDS011;38616;42.140;24.760;2023-05-07T03:23:58;9.85;;;5.35;;
52718;SDS011;38616;42.140;24.760;2023-05-07T03:26:24;8.90;;;4.93;;
52718;SDS011;38616;42.140;24.760;2023-05-07T03:28:50;13.18;;;5.28;;
52718;SDS011;38616;42.140;24.760;2023-05-07T03:31:16;9.43;;;5.38;;
52718;SDS011;38616;42.140;24.760;2023-05-07T03:33:56;10.25;;;5.85;;
52718;SDS011;38616;42.140;24.760;2023-05-07T03:36:22;10.77;;;5.80;;
52718;SDS011;38616;42.140;24.760;2023-05-07T03:38:48;10.32;;;5.95;;
52718;SDS011;38616;42.140;24.760;2023-05-07T03:41:14;9.88;;;6.05;;
52718;SDS011;38616;42.140;24.760;2023-05-07T03:43:40;12.63;;;6.28;;
52718;SDS011;38616;42.140;24.760;2023-05-07T03:46:05;10.55;;;6.20;;
52718;SDS011;38616;42.140;24.760;2023-05-07T03:48:31;14.10;;;6.15;;
52718;SDS011;38616;42.140;24.760;2023-05-07T03:50:57;12.07;;;6.30;;
52718;SDS011;38616;42.140;24.760;2023-05-07T03:53:23;11.73;;;6.32;;
52718;SDS011;38616;42.140;24.760;2023-05-07T03:55:48;12.95;;;6.05;;
52718;SDS011;38616;42.140;24.760;2023-05-07T03:58:14;11.00;;;6.07;;
52718;SDS011;38616;42.140;24.760;2023-05-07T04:00:40;12.93;;;6.97;;
52718;SDS011;38616;42.140;24.760;2023-05-07T04:03:06;9.38;;;6.20;;
52718;SDS011;38616;42.140;24.760;2023-05-07T04:05:31;13.50;;;6.72;;
52718;SDS011;38616;42.140;24.760;2023-05-07T04:08:00;13.75;;;6.95;;
52718;SDS011;38616;42.140;24.760;2023-05-07T04:10:26;12.93;;;6.78;;
52718;SDS011;38616;42.140;24.760;2023-05-07T04:12:53;18.37;;;7.43;;
52718;SDS011;38616;42.140;24.760;2023-05-07T04:15:18;14.23;;;8.73;;
52718;SDS011;38616;42.140;24.760;2023-05-07T04:17:43;12.25;;;6.93;;
52718;SDS011;38616;42.140;24.760;2023-05-07T04:20:09;13.10;;;6.38;;
52718;SDS011;38616;42.140;24.760;2023-05-07T04:22:36;13.20;;;6.95;;
52718;SDS011;38616;42.140;24.760;2023-05-07T04:25:02;11.38;;;6.55;;
52718;SDS011;38616;42.140;24.760;2023-05-07T04:27:28;9.45;;;5.45;;
52718;SDS011;38616;42.140;24.760;2023-05-07T04:29:54;14.73;;;6.57;;
52718;SDS011;38616;42.140;24.760;2023-05-07T04:32:20;15.27;;;6.35;;
52718;SDS011;38616;42.140;24.760;2023-05-07T04:34:46;10.80;;;6.25;;
52718;SDS011;38616;42.140;24.760;2023-05-07T04:37:11;11.00;;;6.80;;
52718;SDS011;38616;42.140;24.760;2023-05-07T04:39:37;12.50;;;5.57;;
52718;SDS011;38616;42.140;24.760;2023-05-07T04:42:02;13.27;;;6.60;;
52718;SDS011;38616;42.140;24.760;2023-05-07T04:44:30;11.13;;;6.43;;
52718;SDS011;38616;42.140;24.760;2023-05-07T04:46:56;13.38;;;6.85;;
52718;SDS011;38616;42.140;24.760;2023-05-07T04:49:22;10.98;;;6.05;;
52718;SDS011;38616;42.140;24.760;2023-05-07T04:51:47;13.48;;;5.88;;
52718;SDS011;38616;42.140;24.760;2023-05-07T04:54:13;11.25;;;6.55;;
52718;SDS011;38616;42.140;24.760;2023-05-07T04:56:38;9.32;;;6.15;;
52718;SDS011;38616;42.140;24.760;2023-05-07T04:59:04;9.82;;;6.20;;
52718;SDS011;38616;42.140;24.760;2023-05-07T05:01:29;10.18;;;5.88;;
52718;SDS011;38616;42.140;24.760;2023-05-07T05:03:55;10.73;;;5.57;;
52718;SDS011;38616;42.140;24.760;2023-05-07T05:06:20;11.63;;;6.70;;
52718;SDS011;38616;42.140;24.760;2023-05-07T05:08:46;12.15;;;6.55;;
52718;SDS011;38616;42.140;24.760;2023-05-07T05:11:11;11.75;;;6.13;;
52718;SDS011;38616;42.140;24.760;2023-05-07T05:13:37;10.93;;;6.15;;
52718;SDS011;38616;42.140;24.760;2023-05-07T05:16:02;10.40;;;5.60;;
52718;SDS011;38616;42.140;24.760;2023-05-07T05:18:29;9.75;;;5.65;;
52718;SDS011;38616;42.140;24.760;2023-05-07T05:20:55;12.35;;;5.60;;
52718;SDS011;38616;42.140;24.760;2023-05-07T05:23:20;14.52;;;6.30;;
52718;SDS011;38616;42.140;24.760;2023-05-07T05:25:45;12.93;;;5.93;;
52718;SDS011;38616;42.140;24.760;2023-05-07T05:28:11;13.30;;;5.95;;
52718;SDS011;38616;42.140;24.760;2023-05-07T05:30:36;11.73;;;5.93;;
52718;SDS011;38616;42.140;24.760;2023-05-07T05:33:01;9.40;;;5.55;;
52718;SDS011;38616;42.140;24.760;2023-05-07T05:35:27;12.77;;;6.07;;
52718;SDS011;38616;42.140;24.760;2023-05-07T05:37:52;10.60;;;6.03;;
52718;SDS011;38616;42.140;24.760;2023-05-07T05:40:18;11.82;;;6.18;;
52718;SDS011;38616;42.140;24.760;2023-05-07T05:42:43;13.43;;;5.45;;
52718;SDS011;38616;42.140;24.760;2023-05-07T05:45:09;8.95;;;4.57;;
52718;SDS011;38616;42.140;24.760;2023-05-07T05:47:34;10.52;;;5.90;;
52718;SDS011;38616;42.140;24.760;2023-05-07T05:50:00;12.43;;;6.00;;
52718;SDS011;38616;42.140;24.760;2023-05-07T05:52:25;9.48;;;5.40;;
52718;SDS011;38616;42.140;24.760;2023-05-07T05:54:51;10.05;;;5.32;;
52718;SDS011;38616;42.140;24.760;2023-05-07T05:57:16;10.70;;;5.45;;
52718;SDS011;38616;42.140;24.760;2023-05-07T05:59:41;9.35;;;5.03;;
52718;SDS011;38616;42.140;24.760;2023-05-07T06:02:07;10.30;;;4.80;;
52718;SDS011;38616;42.140;24.760;2023-05-07T06:04:33;13.02;;;6.07;;
52718;SDS011;38616;42.140;24.760;2023-05-07T06:06:58;10.43;;;6.18;;
52718;SDS011;38616;42.140;24.760;2023-05-07T06:09:23;10.40;;;5.03;;
52718;SDS011;38616;42.140;24.760;2023-05-07T06:11:49;13.23;;;5.05;;
52718;SDS011;38616;42.140;24.760;2023-05-07T06:14:14;10.52;;;4.85;;
52718;SDS011;38616;42.140;24.760;2023-05-07T06:16:40;9.20;;;5.25;;
52718;SDS011;38616;42.140;24.760;2023-05-07T06:19:05;10.43;;;4.95;;
52718;SDS011;38616;42.140;24.760;2023-05-07T06:21:30;9.25;;;5.15;;
52718;SDS011;38616;42.140;24.760;2023-05-07T06:23:56;9.98;;;5.20;;
52718;SDS011;38616;42.140;24.760;2023-05-07T06:26:21;7.65;;;4.65;;
52718;SDS011;38616;42.140;24.760;2023-05-07T06:28:47;10.60;;;4.70;;
52718;SDS011;38616;42.140;24.760;2023-05-07T06:33:39;10.05;;;5.28;;
52718;SDS011;38616;42.140;24.760;2023-05-07T06:36:05;13.45;;;5.13;;
52718;SDS011;38616;42.140;24.760;2023-05-07T06:38:30;14.18;;;5.20;;
52718;SDS011;38616;42.140;24.760;2023-05-07T06:40:56;8.63;;;5.53;;
52718;SDS011;38616;42.140;24.760;2023-05-07T06:43:22;11.68;;;5.82;;
52718;SDS011;38616;42.140;24.760;2023-05-07T06:45:47;13.32;;;6.55;;
52718;SDS011;38616;42.140;24.760;2023-05-07T06:48:13;14.20;;;5.55;;
52718;SDS011;38616;42.140;24.760;2023-05-07T06:50:38;9.32;;;5.70;;
52718;SDS011;38616;42.140;24.760;2023-05-07T06:53:03;16.40;;;9.05;;
52718;SDS011;38616;42.140;24.760;2023-05-07T06:55:29;17.35;;;9.35;;
52718;SDS011;38616;42.140;24.760;2023-05-07T06:57:54;11.60;;;6.88;;
52718;SDS011;38616;42.140;24.760;2023-05-07T07:00:20;10.02;;;5.70;;
52718;SDS011;38616;42.140;24.760;2023-05-07T07:02:45;11.85;;;5.95;;
52718;SDS011;38616;42.140;24.760;2023-05-07T07:05:10;14.70;;;7.38;;
52718;SDS011;38616;42.140;24.760;2023-05-07T07:07:36;15.55;;;6.13;;
52718;SDS011;38616;42.140;24.760;2023-05-07T07:10:01;7.47;;;5.00;;
52718;SDS011;38616;42.140;24.760;2023-05-07T07:12:29;11.02;;;5.15;;
52718;SDS011;38616;42.140;24.760;2023-05-07T07:14:54;13.32;;;7.38;;
52718;SDS011;38616;42.140;24.760;2023-05-07T07:17:20;9.02;;;5.13;;
52718;SDS011;38616;42.140;24.760;2023-05-07T07:19:46;11.48;;;6.43;;
52718;SDS011;38616;42.140;24.760;2023-05-07T07:22:11;11.18;;;6.28;;
52718;SDS011;38616;42.140;24.760;2023-05-07T07:24:36;17.23;;;5.95;;
52718;SDS011;38616;42.140;24.760;2023-05-07T07:27:02;10.07;;;5.85;;
52718;SDS011;38616;42.140;24.760;2023-05-07T07:29:27;10.90;;;6.05;;
52718;SDS011;38616;42.140;24.760;2023-05-07T07:31:53;13.70;;;5.95;;
52718;SDS011;38616;42.140;24.760;2023-05-07T07:34:18;13.68;;;6.40;;
52718;SDS011;38616;42.140;24.760;2023-05-07T07:36:43;15.10;;;6.10;;
52718;SDS011;38616;42.140;24.760;2023-05-07T07:39:09;10.25;;;6.00;;
52718;SDS011;38616;42.140;24.760;2023-05-07T07:41:34;11.18;;;5.53;;
52718;SDS011;38616;42.140;24.760;2023-05-07T07:44:00;12.70;;;5.70;;
52718;SDS011;38616;42.140;24.760;2023-05-07T07:46:25;10.68;;;5.70;;
52718;SDS011;38616;42.140;24.760;2023-05-07T07:48:51;10.60;;;5.82;;
52718;SDS011;38616;42.140;24.760;2023-05-07T07:51:17;8.90;;;4.93;;
52718;SDS011;38616;42.140;24.760;2023-05-07T07:53:42;10.68;;;5.20;;
52718;SDS011;38616;42.140;24.760;2023-05-07T07:56:08;12.52;;;5.85;;
52718;SDS011;38616;42.140;24.760;2023-05-07T07:58:33;9.20;;;5.50;;
52718;SDS011;38616;42.140;24.760;2023-05-07T08:01:00;8.15;;;4.90;;
52718;SDS011;38616;42.140;24.760;2023-05-07T08:03:26;13.45;;;6.72;;
52718;SDS011;38616;42.140;24.760;2023-05-07T08:05:51;12.77;;;6.93;;
52718;SDS011;38616;42.140;24.760;2023-05-07T08:08:17;10.68;;;5.22;;
52718;SDS011;38616;42.140;24.760;2023-05-07T08:10:42;9.48;;;5.25;;
52718;SDS011;38616;42.140;24.760;2023-05-07T08:13:08;11.23;;;4.80;;
52718;SDS011;38616;42.140;24.760;2023-05-07T08:15:33;10.95;;;5.30;;
52718;SDS011;38616;42.140;24.760;2023-05-07T08:17:58;9.60;;;4.93;;
52718;SDS011;38616;42.140;24.760;2023-05-07T08:20:25;16.35;;;4.72;;
52718;SDS011;38616;42.140;24.760;2023-05-07T08:22:51;7.10;;;3.95;;
52718;SDS011;38616;42.140;24.760;2023-05-07T08:25:16;7.60;;;3.53;;
52718;SDS011;38616;42.140;24.760;2023-05-07T08:27:41;7.25;;;4.43;;
52718;SDS011;38616;42.140;24.760;2023-05-07T08:30:07;6.70;;;3.72;;
52718;SDS011;38616;42.140;24.760;2023-05-07T08:32:36;6.65;;;3.10;;
52718;SDS011;38616;42.140;24.760;2023-05-07T08:35:01;11.82;;;3.72;;
52718;SDS011;38616;42.140;24.760;2023-05-07T08:37:27;6.07;;;3.13;;
52718;SDS011;38616;42.140;24.760;2023-05-07T08:39:52;4.32;;;2.88;;
52718;SDS011;38616;42.140;24.760;2023-05-07T08:42:18;6.90;;;3.63;;
52718;SDS011;38616;42.140;24.760;2023-05-07T08:44:45;7.18;;;3.15;;
52718;SDS011;38616;42.140;24.760;2023-05-07T08:47:14;8.98;;;3.70;;
52718;SDS011;38616;42.140;24.760;2023-05-07T08:49:39;6.13;;;2.85;;
52718;SDS011;38616;42.140;24.760;2023-05-07T08:52:05;8.27;;;3.35;;
52718;SDS011;38616;42.140;24.760;2023-05-07T08:54:33;6.82;;;3.35;;
52718;SDS011;38616;42.140;24.760;2023-05-07T08:56:58;8.85;;;4.03;;
52718;SDS011;38616;42.140;24.760;2023-05-07T08:59:25;8.25;;;3.35;;
52718;SDS011;38616;42.140;24.760;2023-05-07T09:01:51;5.38;;;2.72;;
52718;SDS011;38616;42.140;24.760;2023-05-07T09:04:18;8.35;;;3.13;;
52718;SDS011;38616;42.140;24.760;2023-05-07T09:06:44;5.70;;;3.05;;
52718;SDS011;38616;42.140;24.760;2023-05-07T09:09:09;4.20;;;2.65;;
52718;SDS011;38616;42.140;24.760;2023-05-07T09:11:39;3.38;;;2.38;;
52718;SDS011;38616;42.140;24.760;2023-05-07T09:14:05;4.78;;;2.42;;
52718;SDS011;38616;42.140;24.760;2023-05-07T09:16:30;5.30;;;2.55;;
52718;SDS011;38616;42.140;24.760;2023-05-07T09:18:57;6.40;;;2.55;;
52718;SDS011;38616;42.140;24.760;2023-05-07T09:21:23;4.57;;;2.47;;
52718;SDS011;38616;42.140;24.760;2023-05-07T09:23:52;4.13;;;2.05;;
52718;SDS011;38616;42.140;24.760;2023-05-07T09:26:23;3.65;;;2.20;;
52718;SDS011;38616;42.140;24.760;2023-05-07T09:28:49;7.68;;;2.75;;
52718;SDS011;38616;42.140;24.760;2023-05-07T09:31:15;6.88;;;2.40;;
52718;SDS011;38616;42.140;24.760;2023-05-07T09:33:44;4.57;;;2.47;;
52718;SDS011;38616;42.140;24.760;2023-05-07T09:36:09;4.03;;;2.50;;
52718;SDS011;38616;42.140;24.760;2023-05-07T09:38:36;7.65;;;2.40;;
52718;SDS011;38616;42.140;24.760;2023-05-07T09:41:06;6.75;;;2.90;;
52718;SDS011;38616;42.140;24.760;2023-05-07T09:43:33;7.75;;;3.00;;
52718;SDS011;38616;42.140;24.760;2023-05-07T09:46:04;7.05;;;3.35;;
52718;SDS011;38616;42.140;24.760;2023-05-07T09:48:39;4.75;;;2.55;;
52718;SDS011;38616;42.140;24.760;2023-05-07T09:51:09;4.47;;;2.40;;
52718;SDS011;38616;42.140;24.760;2023-05-07T09:53:41;4.00;;;2.17;;
52718;SDS011;38616;42.140;24.760;2023-05-07T09:56:08;6.23;;;2.93;;
52718;SDS011;38616;42.140;24.760;2023-05-07T09:58:37;6.57;;;2.75;;
52718;SDS011;38616;42.140;24.760;2023-05-07T10:01:04;5.70;;;2.63;;
52718;SDS011;38616;42.140;24.760;2023-05-07T10:03:31;4.28;;;2.28;;
52718;SDS011;38616;42.140;24.760;2023-05-07T10:05:58;5.93;;;3.13;;
52718;SDS011;38616;42.140;24.760;2023-05-07T10:08:24;7.65;;;3.05;;
52718;SDS011;38616;42.140;24.760;2023-05-07T10:10:50;7.55;;;2.90;;
52718;SDS011;38616;42.140;24.760;2023-05-07T10:13:16;10.00;;;2.70;;
52718;SDS011;38616;42.140;24.760;2023-05-07T10:15:44;7.53;;;3.65;;
52718;SDS011;38616;42.140;24.760;2023-05-07T10:18:09;5.95;;;2.92;;
52718;SDS011;38616;42.140;24.760;2023-05-07T10:20:36;4.10;;;2.53;;
52718;SDS011;38616;42.140;24.760;2023-05-07T10:23:03;8.50;;;2.70;;
52718;SDS011;38616;42.140;24.760;2023-05-07T10:25:31;3.35;;;2.53;;
52718;SDS011;38616;42.140;24.760;2023-05-07T10:27:59;3.17;;;2.72;;
52718;SDS011;38616;42.140;24.760;2023-05-07T10:33:13;5.18;;;2.95;;
52718;SDS011;38616;42.140;24.760;2023-05-07T10:35:42;6.07;;;2.58;;
52718;SDS011;38616;42.140;24.760;2023-05-07T10:38:10;6.93;;;2.50;;
52718;SDS011;38616;42.140;24.760;2023-05-07T10:40:36;5.75;;;2.85;;
52718;SDS011;38616;42.140;24.760;2023-05-07T10:43:02;5.70;;;2.55;;
52718;SDS011;38616;42.140;24.760;2023-05-07T10:45:30;7.88;;;2.30;;
52718;SDS011;38616;42.140;24.760;2023-05-07T10:48:05;2.25;;;1.92;;
52718;SDS011;38616;42.140;24.760;2023-05-07T10:50:35;5.28;;;2.60;;
52718;SDS011;38616;42.140;24.760;2023-05-07T10:58:43;3.60;;;2.67;;
52718;SDS011;38616;42.140;24.760;2023-05-07T11:01:08;5.00;;;2.70;;
52718;SDS011;38616;42.140;24.760;2023-05-07T11:03:36;7.55;;;3.72;;
52718;SDS011;38616;42.140;24.760;2023-05-07T11:06:38;4.68;;;2.40;;
52718;SDS011;38616;42.140;24.760;2023-05-07T11:09:04;3.80;;;2.25;;
52718;SDS011;38616;42.140;24.760;2023-05-07T11:11:43;5.75;;;2.45;;
52718;SDS011;38616;42.140;24.760;2023-05-07T11:14:13;3.95;;;2.20;;
52718;SDS011;38616;42.140;24.760;2023-05-07T11:16:40;7.43;;;2.57;;
52718;SDS011;38616;42.140;24.760;2023-05-07T11:19:08;3.95;;;2.40;;
52718;SDS011;38616;42.140;24.760;2023-05-07T11:23:59;4.97;;;2.75;;
52718;SDS011;38616;42.140;24.760;2023-05-07T11:26:25;3.65;;;2.20;;
52718;SDS011;38616;42.140;24.760;2023-05-07T11:28:52;8.57;;;3.27;;
52718;SDS011;38616;42.140;24.760;2023-05-07T11:31:22;4.68;;;2.47;;
52718;SDS011;38616;42.140;24.760;2023-05-07T11:33:49;8.30;;;3.13;;
52718;SDS011;38616;42.140;24.760;2023-05-07T11:36:14;6.57;;;2.70;;
52718;SDS011;38616;42.140;24.760;2023-05-07T11:38:40;5.10;;;2.30;;
52718;SDS011;38616;42.140;24.760;2023-05-07T11:41:06;4.43;;;2.05;;
52718;SDS011;38616;42.140;24.760;2023-05-07T11:43:32;2.55;;;2.00;;
52718;SDS011;38616;42.140;24.760;2023-05-07T11:46:05;3.17;;;2.20;;
52718;SDS011;38616;42.140;24.760;2023-05-07T11:48:31;3.10;;;1.98;;
52718;SDS011;38616;42.140;24.760;2023-05-07T11:51:00;3.78;;;2.75;;
52718;SDS011;38616;42.140;24.760;2023-05-07T11:53:34;4.05;;;2.20;;
52718;SDS011;38616;42.140;24.760;2023-05-07T11:56:05;5.28;;;2.25;;
52718;SDS011;38616;42.140;24.760;2023-05-07T11:58:34;5.30;;;3.25;;
52718;SDS011;38616;42.140;24.760;2023-05-07T12:01:00;6.43;;;2.95;;
52718;SDS011;38616;42.140;24.760;2023-05-07T12:03:25;6.10;;;2.78;;
52718;SDS011;38616;42.140;24.760;2023-05-07T12:05:51;4.43;;;2.50;;
52718;SDS011;38616;42.140;24.760;2023-05-07T12:08:17;10.68;;;2.80;;
52718;SDS011;38616;42.140;24.760;2023-05-07T12:10:43;3.05;;;2.22;;
52718;SDS011;38616;42.140;24.760;2023-05-07T12:13:22;4.68;;;2.10;;
52718;SDS011;38616;42.140;24.760;2023-05-07T12:15:52;5.38;;;2.50;;
52718;SDS011;38616;42.140;24.760;2023-05-07T12:18:18;4.45;;;2.42;;
52718;SDS011;38616;42.140;24.760;2023-05-07T12:20:45;3.77;;;1.97;;
52718;SDS011;38616;42.140;24.760;2023-05-07T12:23:11;3.65;;;2.50;;
52718;SDS011;38616;42.140;24.760;2023-05-07T12:25:38;7.28;;;2.67;;
52718;SDS011;38616;42.140;24.760;2023-05-07T12:28:04;2.75;;;2.30;;
52718;SDS011;38616;42.140;24.760;2023-05-07T12:30:36;6.43;;;2.60;;
52718;SDS011;38616;42.140;24.760;2023-05-07T12:33:03;3.17;;;2.35;;
52718;SDS011;38616;42.140;24.760;2023-05-07T12:35:32;4.03;;;1.83;;
52718;SDS011;38616;42.140;24.760;2023-05-07T12:38:01;3.00;;;2.47;;
52718;SDS011;38616;42.140;24.760;2023-05-07T12:40:36;4.72;;;2.70;;
52718;SDS011;38616;42.140;24.760;2023-05-07T12:43:06;6.05;;;2.65;;
52718;SDS011;38616;42.140;24.760;2023-05-07T12:45:37;5.43;;;3.03;;
52718;SDS011;38616;42.140;24.760;2023-05-07T12:48:06;3.63;;;2.50;;
52718;SDS011;38616;42.140;24.760;2023-05-07T12:50:32;5.30;;;2.20;;
52718;SDS011;38616;42.140;24.760;2023-05-07T12:52:58;5.95;;;2.42;;
52718;SDS011;38616;42.140;24.760;2023-05-07T12:55:24;6.07;;;2.15;;
52718;SDS011;38616;42.140;24.760;2023-05-07T12:57:49;8.80;;;2.70;;
52718;SDS011;38616;42.140;24.760;2023-05-07T13:00:16;8.83;;;3.00;;
52718;SDS011;38616;42.140;24.760;2023-05-07T13:02:42;5.05;;;2.47;;
52718;SDS011;38616;42.140;24.760;2023-05-07T13:05:09;4.20;;;2.58;;
52718;SDS011;38616;42.140;24.760;2023-05-07T13:07:34;5.82;;;2.50;;
52718;SDS011;38616;42.140;24.760;2023-05-07T13:10:01;4.77;;;2.93;;
52718;SDS011;38616;42.140;24.760;2023-05-07T13:12:27;2.90;;;1.85;;
52718;SDS011;38616;42.140;24.760;2023-05-07T13:14:53;3.92;;;2.33;;
52718;SDS011;38616;42.140;24.760;2023-05-07T13:17:18;7.30;;;2.53;;
52718;SDS011;38616;42.140;24.760;2023-05-07T13:19:43;4.18;;;2.92;;
52718;SDS011;38616;42.140;24.760;2023-05-07T13:22:09;4.63;;;2.80;;
52718;SDS011;38616;42.140;24.760;2023-05-07T13:24:34;6.38;;;2.40;;
52718;SDS011;38616;42.140;24.760;2023-05-07T13:27:00;8.25;;;2.85;;
52718;SDS011;38616;42.140;24.760;2023-05-07T13:29:25;11.18;;;3.33;;
52718;SDS011;38616;42.140;24.760;2023-05-07T13:31:56;2.80;;;2.17;;
52718;SDS011;38616;42.140;24.760;2023-05-07T13:34:22;5.07;;;2.30;;
52718;SDS011;38616;42.140;24.760;2023-05-07T13:36:47;4.15;;;2.28;;
52718;SDS011;38616;42.140;24.760;2023-05-07T13:39:13;9.32;;;2.53;;
52718;SDS011;38616;42.140;24.760;2023-05-07T13:41:38;4.35;;;2.03;;
52718;SDS011;38616;42.140;24.760;2023-05-07T13:44:03;5.82;;;2.15;;
52718;SDS011;38616;42.140;24.760;2023-05-07T13:46:29;3.83;;;2.60;;
52718;SDS011;38616;42.140;24.760;2023-05-07T13:48:55;3.97;;;2.33;;
52718;SDS011;38616;42.140;24.760;2023-05-07T13:51:21;5.47;;;2.55;;
52718;SDS011;38616;42.140;24.760;2023-05-07T13:53:46;4.35;;;2.42;;
52718;SDS011;38616;42.140;24.760;2023-05-07T13:56:12;5.95;;;2.72;;
52718;SDS011;38616;42.140;24.760;2023-05-07T13:58:37;6.57;;;2.40;;
52718;SDS011;38616;42.140;24.760;2023-05-07T14:01:03;3.00;;;1.85;;
52718;SDS011;38616;42.140;24.760;2023-05-07T14:03:28;5.10;;;2.00;;
52718;SDS011;38616;42.140;24.760;2023-05-07T14:05:56;7.55;;;2.08;;
52718;SDS011;38616;42.140;24.760;2023-05-07T14:08:22;3.42;;;1.63;;
52718;SDS011;38616;42.140;24.760;2023-05-07T14:10:48;3.65;;;1.83;;
52718;SDS011;38616;42.140;24.760;2023-05-07T14:13:13;3.47;;;2.03;;
52718;SDS011;38616;42.140;24.760;2023-05-07T14:15:39;5.85;;;1.95;;
52718;SDS011;38616;42.140;24.760;2023-05-07T14:18:11;3.53;;;2.22;;
52718;SDS011;38616;42.140;24.760;2023-05-07T14:20:36;6.45;;;1.98;;
52718;SDS011;38616;42.140;24.760;2023-05-07T14:23:02;4.53;;;1.92;;
52718;SDS011;38616;42.140;24.760;2023-05-07T14:25:28;4.63;;;1.60;;
52718;SDS011;38616;42.140;24.760;2023-05-07T14:27:53;2.83;;;1.80;;
52718;SDS011;38616;42.140;24.760;2023-05-07T14:30:19;2.58;;;1.50;;
52718;SDS011;38616;42.140;24.760;2023-05-07T14:32:44;3.05;;;1.63;;
52718;SDS011;38616;42.140;24.760;2023-05-07T14:35:10;2.28;;;1.73;;
52718;SDS011;38616;42.140;24.760;2023-05-07T14:37:35;3.72;;;1.90;;
52718;SDS011;38616;42.140;24.760;2023-05-07T14:40:00;8.13;;;3.70;;
52718;SDS011;38616;42.140;24.760;2023-05-07T14:42:26;3.90;;;2.10;;